Time;durP1;ratioP1;P1;durP2;ratioP2;P2;SDS_P1;SDS_P2;PMS_P1;PMS_P2;Temp;Humidity;BMP_temperature;BMP_pressure;BME280_temperature;BME280_humidity;BME280_pressure;Samples;Min_cycle;Max_cycle;Signal;HPM_P1;HPM_P2
2022/09/11 00:02:22;;;;;;;;;;;;;;;21.65;46.59;99353.34;4479120;32;34700;-64
2022/09/11 00:04:49;;;;;;;;;;;;;;;21.45;47.30;99355.03;4476240;32;33487;-64
2022/09/11 00:07:17;;;;;;;;;;;;;;;21.44;47.13;99353.34;4478544;32;33853;-63
2022/09/11 00:09:44;;;;;;;;;;;;;;;21.45;47.26;99355.03;4482176;32;35365;-63
2022/09/11 00:12:11;;;;;;;;;;;;;;;21.40;47.24;99352.87;4481736;32;33715;-63
2022/09/11 00:14:39;;;;;;;;;;;;;;;21.40;47.17;99352.87;4478227;32;33638;-63
2022/09/11 00:17:06;;;;;;;;;;;;;;;21.15;47.69;99350.53;4477102;32;33998;-63
2022/09/11 00:19:35;;;;;;;;;;;;;;;21.21;47.25;99342.59;4473561;32;33162;-63
2022/09/11 00:22:02;;;;;;;;;;;;;;;21.26;47.44;99337.44;4479791;32;32854;-63
2022/09/11 00:24:29;;;;;;;;;;;;;;;21.24;47.29;99332.19;4477192;32;34860;-63
2022/09/11 00:26:57;;;;;;;;;;;;;;;21.15;47.40;99336.91;4476856;32;32992;-63
2022/09/11 00:29:24;;;;;;;;;;;;;;;21.20;46.84;99332.78;4483599;32;34438;-63
2022/09/11 00:31:51;;;;;;;;;;;;;;;21.05;47.40;99328.19;4480895;32;34705;-63
2022/09/11 00:34:19;;;;;;;;;;;;;;;21.22;47.07;99331.53;4483939;32;33990;-63
2022/09/11 00:36:47;;;;;;;;;;;;;;;20.80;47.76;99335.00;4482421;32;34891;-64
2022/09/11 00:39:14;;;;;;;;;;;;;;;20.63;48.00;99335.22;4482586;32;35800;-63
2022/09/11 00:41:43;;;;;;;;;;;;;;;20.72;47.89;99332.44;4484151;32;31940;-63
2022/09/11 00:44:11;;;;;;;;;;;;;;;20.83;47.87;99338.19;4486101;32;35374;-63
2022/09/11 00:46:48;;;;;;;;;;;;;;;20.92;47.31;99330.78;4476835;32;32663;-63
2022/09/11 00:49:29;;;;;;;;;;;;;;;20.72;47.71;99335.12;4478101;32;34604;-63
2022/09/11 00:51:57;;;;;;;;;;;;;;;20.36;48.19;99334.00;4472193;32;33931;-63
2022/09/11 00:54:29;;;;;;;;;;;;;;;20.69;47.59;99339.91;4477908;32;34037;-63
2022/09/11 00:56:57;;;;;;;;;;;;;;;20.67;47.83;99338.41;4476692;32;33022;-63
2022/09/11 00:59:25;;;;;;;;;;;;;;;20.52;48.42;99338.44;4481984;32;34465;-62
2022/09/11 01:01:53;;;;;;;;;;;;;;;20.66;47.62;99345.72;4481092;32;32240;-63
2022/09/11 01:04:20;;;;;;;;;;;;;;;20.37;48.66;99335.69;4481289;32;33955;-63
2022/09/11 01:06:55;;;;;;;;;;;;;;;20.53;48.12;99342.84;4472461;32;34377;-63
2022/09/11 01:09:23;;;;;;;;;;;;;;;20.73;47.69;99339.53;4474804;31;33216;-63
2022/09/11 01:11:57;;;;;;;;;;;;;;;20.76;47.47;99333.72;4481429;32;33574;-63
2022/09/11 01:14:27;;;;;;;;;;;;;;;20.68;47.78;99338.25;4477880;32;34497;-63
2022/09/11 01:17:19;;;;;;;;;;;;;;;20.65;47.80;99322.31;4479713;32;33999;-63
2022/09/11 01:20:05;;;;;;;;;;;;;;;20.23;48.65;99321.09;4479519;32;33802;-63
2022/09/11 01:22:48;;;;;;;;;;;;;;;20.37;48.77;99318.53;4482277;32;34635;-63
2022/09/11 01:25:27;;;;;;;;;;;;;;;20.41;48.41;99319.84;4480209;32;34902;-63
2022/09/11 01:27:59;;;;;;;;;;;;;;;20.37;48.61;99318.53;4472485;32;32903;-63
2022/09/11 01:30:28;;;;;;;;;;;;;;;20.53;48.31;99317.53;4478416;32;33930;-63
2022/09/11 01:32:59;;;;;;;;;;;;;;;20.38;48.56;99323.78;4474457;32;34663;-63
2022/09/11 01:35:30;;;;;;;;;;;;;;;20.52;48.29;99318.59;4469003;32;33810;-63
2022/09/11 01:38:05;;;;;;;;;;;;;;;20.51;48.27;99315.00;4483766;32;34391;-63
2022/09/11 01:40:39;;;;;;;;;;;;;;;20.39;48.60;99305.63;4472272;32;34435;-63
2022/09/11 01:43:12;;;;;;;;;;;;;;;20.50;48.46;99310.56;4481401;32;33379;-63
2022/09/11 01:45:44;;;;;;;;;;;;;;;20.34;48.71;99306.16;4479798;32;33973;-63
2022/09/11 01:48:12;;;;;;;;;;;;;;;20.04;49.52;99290.91;4473775;32;34324;-63
2022/09/11 01:50:39;;;;;;;;;;;;;;;19.90;50.12;99292.56;4481991;32;34882;-63
2022/09/11 01:53:08;;;;;;;;;;;;;;;19.95;49.60;99292.87;4476451;32;33496;-63
2022/09/11 01:55:37;;;;;;;;;;;;;;;20.23;49.11;99290.34;4480337;32;34261;-63
2022/09/11 01:58:06;;;;;;;;;;;;;;;20.11;49.39;99283.69;4481049;32;34027;-63
2022/09/11 02:00:35;;;;;;;;;;;;;;;19.76;50.43;99283.38;4476277;32;35309;-62
2022/09/11 02:03:07;;;;;;;;;;;;;;;19.98;49.72;99278.91;4472713;32;34650;-64
2022/09/11 02:05:42;;;;;;;;;;;;;;;19.55;50.56;99284.09;4467464;32;32977;-63
2022/09/11 02:08:15;;;;;;;;;;;;;;;19.38;51.33;99288.78;4467855;32;35277;-64
2022/09/11 02:10:50;;;;;;;;;;;;;;;19.12;52.24;99291.87;4478320;32;34376;-64
2022/09/11 02:13:18;;;;;;;;;;;;;;;19.40;51.83;99286.75;4481530;32;34071;-63
2022/09/11 02:15:47;;;;;;;;;;;;;;;19.35;51.95;99296.44;4484764;32;33875;-63
2022/09/11 02:18:25;;;;;;;;;;;;;;;19.18;51.75;99299.28;4471125;32;33002;-63
2022/09/11 02:20:53;;;;;;;;;;;;;;;19.52;51.37;99298.03;4476883;32;33027;-64
2022/09/11 02:23:20;;;;;;;;;;;;;;;19.74;50.57;99297.16;4484488;32;32968;-63
2022/09/11 02:25:51;;;;;;;;;;;;;;;19.22;52.23;99291.63;4481975;32;32864;-63
2022/09/11 02:28:18;;;;;;;;;;;;;;;19.51;51.57;99286.28;4472601;32;34164;-62
2022/09/11 02:30:46;;;;;;;;;;;;;;;19.36;52.30;99287.28;4476238;32;34138;-63
2022/09/11 02:33:30;;;;;;;;;;;;;;;19.67;51.02;99279.91;4478362;32;33443;-64
2022/09/11 02:36:02;;;;;;;;;;;;;;;19.46;51.41;99287.88;4483919;32;34041;-63
2022/09/11 02:38:32;;;;;;;;;;;;;;;19.25;51.90;99289.41;4469678;32;33670;-64
2022/09/11 02:41:19;;;;;;;;;;;;;;;19.43;51.51;99288.25;4478409;32;33542;-63
2022/09/11 02:43:54;;;;;;;;;;;;;;;19.71;50.92;99285.81;4470876;32;33157;-64
2022/09/11 02:46:40;;;;;;;;;;;;;;;19.69;50.63;99286.00;4472076;32;33876;-65
2022/09/11 02:49:09;;;;;;;;;;;;;;;19.82;50.40;99290.78;4481287;32;33294;-64
2022/09/11 02:51:37;;;;;;;;;;;;;;;19.97;49.97;99285.37;4475573;32;36606;-63
2022/09/11 02:54:10;;;;;;;;;;;;;;;19.79;50.41;99288.44;4482683;32;33599;-63
2022/09/11 02:56:40;;;;;;;;;;;;;;;19.81;50.27;99283.69;4471409;32;33476;-63
2022/09/11 02:59:27;;;;;;;;;;;;;;;19.81;50.27;99283.69;4480690;32;34542;-64
2022/09/11 03:01:57;;;;;;;;;;;;;;;19.73;50.76;99283.75;4479852;32;34231;-64
2022/09/11 03:04:25;;;;;;;;;;;;;;;19.76;50.76;99294.25;4482878;32;34206;-63
2022/09/11 03:06:52;;;;;;;;;;;;;;;18.92;53.20;99299.66;4481965;32;32769;-62
2022/09/11 03:09:20;;;;;;;;;;;;;;;19.35;52.29;99296.44;4483785;32;34185;-64
2022/09/11 03:11:48;;;;;;;;;;;;;;;19.35;52.23;99294.56;4482935;31;34199;-63
2022/09/11 03:14:16;;;;;;;;;;;;;;;19.68;51.15;99297.91;4484080;32;33421;-64
2022/09/11 03:16:44;;;;;;;;;;;;;;;19.80;50.92;99295.56;4482969;32;34326;-63
2022/09/11 03:19:12;;;;;;;;;;;;;;;19.54;51.71;99296.78;4483610;32;33039;-63
2022/09/11 03:21:39;;;;;;;;;;;;;;;19.53;51.65;99294.25;4477879;32;34390;-64
2022/09/11 03:24:08;;;;;;;;;;;;;;;19.80;51.00;99286.56;4484291;32;33542;-64
2022/09/11 03:26:36;;;;;;;;;;;;;;;19.80;51.01;99284.69;4481318;32;34998;-63
2022/09/11 03:29:03;;;;;;;;;;;;;;;19.74;51.18;99293.56;4480089;32;34177;-63
2022/09/11 03:31:31;;;;;;;;;;;;;;;19.73;51.43;99289.19;4480059;32;34642;-64
2022/09/11 03:34:03;;;;;;;;;;;;;;;19.29;52.64;99293.47;4483935;32;33369;-64
2022/09/11 03:36:33;;;;;;;;;;;;;;;19.37;52.45;99291.69;4482803;32;34278;-64
2022/09/11 03:39:00;;;;;;;;;;;;;;;19.57;52.05;99295.56;4480303;32;35342;-65
2022/09/11 03:41:29;;;;;;;;;;;;;;;19.76;51.63;99286.09;4475570;32;34241;-65
2022/09/11 03:43:56;;;;;;;;;;;;;;;19.24;52.93;99289.59;4482204;32;33514;-65
2022/09/11 03:46:24;;;;;;;;;;;;;;;19.62;51.92;99293.16;4482317;32;35291;-66
2022/09/11 03:48:52;;;;;;;;;;;;;;;19.70;52.07;99292.28;4473573;32;32588;-65
2022/09/11 03:51:20;;;;;;;;;;;;;;;19.56;52.08;99291.19;4477276;32;34396;-64
2022/09/11 03:53:47;;;;;;;;;;;;;;;19.92;51.11;99294.09;4478657;32;34266;-64
2022/09/11 03:56:14;;;;;;;;;;;;;;;19.63;52.13;99305.69;4476230;32;32815;-64
2022/09/11 03:58:43;;;;;;;;;;;;;;;19.71;51.77;99313.81;4481792;32;34147;-64
2022/09/11 04:01:12;;;;;;;;;;;;;;;19.52;52.46;99298.03;4482059;31;34219;-64
2022/09/11 04:03:40;;;;;;;;;;;;;;;19.06;53.75;99300.72;4483072;32;33549;-64
2022/09/11 04:06:08;;;;;;;;;;;;;;;19.07;53.88;99307.87;4476765;32;33718;-64
2022/09/11 04:08:38;;;;;;;;;;;;;;;19.08;53.83;99304.12;4481792;32;33899;-65
2022/09/11 04:11:05;;;;;;;;;;;;;;;19.08;53.70;99312.25;4486238;32;34613;-65
2022/09/11 04:13:35;;;;;;;;;;;;;;;19.30;53.04;99307.84;4484114;32;34059;-65
2022/09/11 04:16:07;;;;;;;;;;;;;;;19.57;52.48;99314.59;4489145;32;33933;-65
2022/09/11 04:18:36;;;;;;;;;;;;;;;19.82;51.80;99314.41;4486108;32;34461;-64
2022/09/11 04:21:04;;;;;;;;;;;;;;;19.87;51.71;99317.38;4488832;32;34716;-64
2022/09/11 04:23:32;;;;;;;;;;;;;;;19.75;51.87;99317.84;4487551;32;33608;-65
2022/09/11 04:26:00;;;;;;;;;;;;;;;19.80;52.05;99319.16;4489072;32;34130;-64
2022/09/11 04:28:28;;;;;;;;;;;;;;;20.05;51.26;99319.75;4485139;32;33972;-64
2022/09/11 04:30:56;;;;;;;;;;;;;;;20.09;50.96;99319.19;4487103;32;34206;-63
2022/09/11 04:33:23;;;;;;;;;;;;;;;20.14;50.76;99313.22;4486259;32;32339;-64
2022/09/11 04:35:51;;;;;;;;;;;;;;;20.11;50.80;99314.44;4473361;32;34243;-63
2022/09/11 04:38:20;;;;;;;;;;;;;;;20.12;50.77;99318.81;4472153;32;33715;-63
2022/09/11 04:40:48;;;;;;;;;;;;;;;20.25;50.51;99319.00;4487458;32;34046;-63
2022/09/11 04:43:16;;;;;;;;;;;;;;;20.33;50.28;99325.41;4487838;32;34450;-63
2022/09/11 04:45:43;;;;;;;;;;;;;;;20.20;50.60;99316.03;4487482;32;32927;-63
2022/09/11 04:48:12;;;;;;;;;;;;;;;20.34;50.27;99318.91;4485815;32;35251;-63
2022/09/11 04:50:40;;;;;;;;;;;;;;;20.31;50.38;99319.28;4485911;32;34037;-63
2022/09/11 04:53:08;;;;;;;;;;;;;;;20.32;50.38;99319.12;4487040;32;32226;-63
2022/09/11 04:55:36;;;;;;;;;;;;;;;20.29;50.46;99322.22;4485518;32;32952;-64
2022/09/11 04:58:04;;;;;;;;;;;;;;;20.36;50.54;99315.00;4487914;32;32890;-63
2022/09/11 05:00:32;;;;;;;;;;;;;;;20.40;50.51;99318.16;4468928;31;33783;-64
2022/09/11 05:03:00;;;;;;;;;;;;;;;20.42;50.48;99316.97;4472782;32;33623;-64
2022/09/11 05:05:28;;;;;;;;;;;;;;;20.48;50.29;99313.50;4481200;32;34375;-64
2022/09/11 05:07:55;;;;;;;;;;;;;;;20.31;50.92;99309.25;4485383;32;33980;-64
2022/09/11 05:10:26;;;;;;;;;;;;;;;20.49;50.48;99317.03;4485788;32;34165;-63
2022/09/11 05:12:53;;;;;;;;;;;;;;;20.57;50.40;99313.41;4488547;32;33411;-63
2022/09/11 05:15:20;;;;;;;;;;;;;;;20.67;50.03;99317.53;4482918;32;32706;-64
2022/09/11 05:17:49;;;;;;;;;;;;;;;20.58;50.27;99310.50;4482932;32;33174;-63
2022/09/11 05:20:17;;;;;;;;;;;;;;;20.66;50.27;99310.38;4481374;32;34185;-63
2022/09/11 05:22:45;;;;;;;;;;;;;;;20.74;50.26;99327.63;4483570;32;33131;-63
2022/09/11 05:25:13;;;;;;;;;;;;;;;20.78;50.13;99332.50;4472566;32;33724;-64
2022/09/11 05:27:40;;;;;;;;;;;;;;;20.91;49.93;99329.09;4480565;32;32908;-63
2022/09/11 05:30:08;;;;;;;;;;;;;;;20.94;49.77;99342.31;4481354;32;34012;-63
2022/09/11 05:32:36;;;;;;;;;;;;;;;21.01;49.77;99335.06;4484142;32;34833;-64
2022/09/11 05:35:04;;;;;;;;;;;;;;;21.07;49.44;99342.47;4479518;32;35592;-63
2022/09/11 05:37:31;;;;;;;;;;;;;;;21.15;49.52;99334.19;4480738;32;33192;-63
2022/09/11 05:39:59;;;;;;;;;;;;;;;21.16;49.74;99344.03;4477688;32;34375;-63
2022/09/11 05:42:27;;;;;;;;;;;;;;;21.24;49.44;99347.66;4481586;32;33483;-63
2022/09/11 05:44:55;;;;;;;;;;;;;;;21.20;49.27;99349.94;4479757;32;34541;-63
2022/09/11 05:47:23;;;;;;;;;;;;;;;21.26;49.34;99345.59;4483608;32;35506;-63
2022/09/11 05:49:51;;;;;;;;;;;;;;;21.21;49.47;99343.44;4483751;32;34616;-63
2022/09/11 05:52:19;;;;;;;;;;;;;;;21.34;49.48;99345.47;4484334;32;33464;-63
2022/09/11 05:54:46;;;;;;;;;;;;;;;20.84;49.75;99347.22;4483425;31;35649;-63
2022/09/11 05:57:14;;;;;;;;;;;;;;;21.26;48.62;99359.22;4473170;32;33874;-63
2022/09/11 05:59:41;;;;;;;;;;;;;;;21.20;49.15;99360.81;4480871;32;35202;-63
2022/09/11 06:02:09;;;;;;;;;;;;;;;20.94;49.55;99358.63;4480226;32;33463;-63
2022/09/11 06:04:37;;;;;;;;;;;;;;;21.17;49.50;99359.31;4478273;32;35214;-63
2022/09/11 06:07:05;;;;;;;;;;;;;;;20.85;50.38;99363.34;4479784;32;35511;-62
2022/09/11 06:09:33;;;;;;;;;;;;;;;21.26;49.16;99357.34;4483692;32;33949;-64
2022/09/11 06:12:01;;;;;;;;;;;;;;;21.28;48.81;99368.00;4477504;32;33521;-63
2022/09/11 06:14:28;;;;;;;;;;;;;;;21.16;49.59;99370.41;4479931;32;34053;-63
2022/09/11 06:16:56;;;;;;;;;;;;;;;21.20;48.88;99365.44;4475724;32;33189;-63
2022/09/11 06:19:24;;;;;;;;;;;;;;;20.96;49.58;99370.16;4480526;32;33103;-63
2022/09/11 06:21:51;;;;;;;;;;;;;;;21.36;49.34;99367.94;4480493;32;32295;-63
2022/09/11 06:24:19;;;;;;;;;;;;;;;21.45;49.09;99368.66;4482253;32;33711;-63
2022/09/11 06:26:48;;;;;;;;;;;;;;;20.85;49.97;99381.53;4477815;32;35203;-63
2022/09/11 06:29:16;;;;;;;;;;;;;;;20.65;50.77;99370.41;4482224;32;34228;-63
2022/09/11 06:31:44;;;;;;;;;;;;;;;20.28;51.92;99372.12;4477513;32;34865;-62
2022/09/11 06:34:12;;;;;;;;;;;;;;;20.83;50.79;99368.13;4476692;32;33465;-63
2022/09/11 06:36:42;;;;;;;;;;;;;;;20.63;50.65;99362.44;4479235;32;32839;-63
2022/09/11 06:39:13;;;;;;;;;;;;;;;20.62;50.99;99360.75;4478258;32;33981;-64
2022/09/11 06:41:40;;;;;;;;;;;;;;;20.43;51.89;99361.28;4479679;32;33435;-64
2022/09/11 06:44:08;;;;;;;;;;;;;;;20.40;51.73;99358.94;4476670;31;34323;-63
2022/09/11 06:46:36;;;;;;;;;;;;;;;20.58;51.43;99358.59;4474948;32;34716;-64
2022/09/11 06:49:05;;;;;;;;;;;;;;;20.45;51.84;99345.66;4472241;32;34351;-63
2022/09/11 06:51:46;;;;;;;;;;;;;;;20.22;52.88;99354.72;4475060;32;33100;-63
2022/09/11 06:54:15;;;;;;;;;;;;;;;20.12;52.75;99358.72;4480194;31;34109;-64
2022/09/11 06:56:44;;;;;;;;;;;;;;;20.35;52.28;99358.66;4471109;32;34287;-63
2022/09/11 06:59:13;;;;;;;;;;;;;;;20.50;52.16;99356.78;4478181;31;33742;-63
2022/09/11 07:01:43;;;;;;;;;;;;;;;20.90;51.09;99360.06;4472262;32;34505;-63
2022/09/11 07:04:11;;;;;;;;;;;;;;;20.82;50.86;99360.16;4479475;31;34119;-63
2022/09/11 07:06:38;;;;;;;;;;;;;;;20.82;51.50;99358.28;4477814;32;35254;-63
2022/09/11 07:09:05;;;;;;;;;;;;;;;20.45;52.97;99354.63;4481638;32;33262;-63
2022/09/11 07:11:33;;;;;;;;;;;;;;;20.38;52.63;99352.84;4475954;31;35129;-63
2022/09/11 07:14:04;;;;;;;;;;;;;;;20.59;52.11;99346.69;4477230;32;34217;-63
2022/09/11 07:16:32;;;;;;;;;;;;;;;20.47;52.55;99346.28;4478159;31;32957;-63
2022/09/11 07:19:06;;;;;;;;;;;;;;;20.52;52.61;99341.16;4479927;32;34561;-63
2022/09/11 07:21:34;;;;;;;;;;;;;;;20.45;52.45;99338.34;4472722;31;32170;-62
2022/09/11 07:24:02;;;;;;;;;;;;;;;20.98;50.76;99335.44;4476864;32;33693;-64
2022/09/11 07:26:31;;;;;;;;;;;;;;;20.70;51.38;99341.59;4476977;31;34276;-63
2022/09/11 07:28:59;;;;;;;;;;;;;;;20.86;51.16;99334.25;4481558;32;34486;-63
2022/09/11 07:31:31;;;;;;;;;;;;;;;21.20;50.83;99327.31;4478714;31;33431;-63
2022/09/11 07:33:59;;;;;;;;;;;;;;;20.90;51.67;99321.97;4481519;32;34319;-64
2022/09/11 07:36:31;;;;;;;;;;;;;;;21.21;51.00;99326.28;4480241;32;32924;-63
2022/09/11 07:38:59;;;;;;;;;;;;;;;21.70;49.89;99328.22;4468988;31;34056;-63
2022/09/11 07:41:28;;;;;;;;;;;;;;;21.05;51.19;99328.19;4470703;32;34376;-63
2022/09/11 07:43:58;;;;;;;;;;;;;;;20.80;51.59;99332.28;4462844;32;33329;-62
2022/09/11 07:46:26;;;;;;;;;;;;;;;21.06;50.20;99324.47;4460750;32;34274;-62
2022/09/11 07:48:54;;;;;;;;;;;;;;;21.74;49.31;99329.53;4471181;31;35627;-62
2022/09/11 07:51:21;;;;;;;;;;;;;;;21.87;49.32;99329.66;4464620;32;31825;-63
2022/09/11 07:53:50;;;;;;;;;;;;;;;21.85;49.25;99335.28;4470796;31;35212;-62
2022/09/11 07:56:18;;;;;;;;;;;;;;;21.63;49.65;99336.34;4470120;32;33624;-63
2022/09/11 07:58:46;;;;;;;;;;;;;;;21.81;48.64;99336.72;4470452;31;34524;-63
2022/09/11 08:01:16;;;;;;;;;;;;;;;21.32;49.85;99334.78;4465873;32;33571;-63
2022/09/11 08:03:44;;;;;;;;;;;;;;;21.94;48.25;99337.87;4468272;32;33412;-63
2022/09/11 08:06:13;;;;;;;;;;;;;;;21.62;48.89;99346.41;4470874;31;34601;-63
2022/09/11 08:08:50;;;;;;;;;;;;;;;21.81;48.64;99344.06;4464108;32;34951;-63
2022/09/11 08:11:18;;;;;;;;;;;;;;;21.27;50.07;99347.28;4471296;31;33868;-62
2022/09/11 08:13:52;;;;;;;;;;;;;;;21.82;49.36;99345.72;4469916;32;34289;-62
2022/09/11 08:16:21;;;;;;;;;;;;;;;21.80;49.56;99336.94;4472167;31;34127;-62
2022/09/11 08:18:50;;;;;;;;;;;;;;;22.29;48.59;99345.06;4468966;32;35446;-63
2022/09/11 08:21:18;;;;;;;;;;;;;;;22.22;49.43;99337.91;4471253;32;33645;-63
2022/09/11 08:23:45;;;;;;;;;;;;;;;22.35;48.97;99346.16;4470840;32;34941;-63
2022/09/11 08:26:20;;;;;;;;;;;;;;;22.38;48.91;99342.19;4470680;32;34078;-63
2022/09/11 08:28:51;;;;;;;;;;;;;;;21.91;49.51;99341.81;4468991;32;34186;-63
2022/09/11 08:31:19;;;;;;;;;;;;;;;22.16;48.44;99344.13;4469509;31;33690;-63
2022/09/11 08:33:48;;;;;;;;;;;;;;;22.02;48.73;99337.69;4469567;32;34013;-63
2022/09/11 08:36:16;;;;;;;;;;;;;;;21.81;49.55;99334.00;4471033;32;34162;-63
2022/09/11 08:38:44;;;;;;;;;;;;;;;22.09;48.64;99334.00;4461225;32;34393;-63
2022/09/11 08:41:26;;;;;;;;;;;;;;;21.79;49.72;99336.06;4471034;32;33729;-63
2022/09/11 08:43:55;;;;;;;;;;;;;;;22.26;49.08;99339.16;4454907;32;32883;-63
2022/09/11 08:46:24;;;;;;;;;;;;;;;22.28;49.17;99335.22;4457880;32;33777;-63
2022/09/11 08:49:01;;;;;;;;;;;;;;;22.66;48.19;99342.09;4471191;31;33943;-64
2022/09/11 08:51:30;;;;;;;;;;;;;;;22.59;48.42;99333.88;4471442;32;33374;-63
2022/09/11 08:53:57;;;;;;;;;;;;;;;22.00;48.55;99335.19;4472030;31;34874;-63
2022/09/11 08:56:27;;;;;;;;;;;;;;;21.50;50.72;99336.22;4460436;32;33812;-63
2022/09/11 08:59:01;;;;;;;;;;;;;;;21.91;49.95;99339.09;4464096;32;34674;-64
2022/09/11 09:01:48;;;;;;;;;;;;;;;21.58;50.52;99333.38;4465730;32;32025;-64
2022/09/11 09:04:38;;;;;;;;;;;;;;;21.65;50.63;99341.62;4448934;31;32241;-63
2022/09/11 09:07:09;;;;;;;;;;;;;;;21.50;50.50;99333.50;4480915;32;35445;-62
2022/09/11 09:09:39;;;;;;;;;;;;;;;22.33;48.81;99337.31;4463148;32;32818;-63
2022/09/11 09:12:19;;;;;;;;;;;;;;;22.28;47.94;99328.91;4481026;32;33515;-63
2022/09/11 09:14:59;;;;;;;;;;;;;;;22.42;48.29;99327.94;4468369;32;32245;-63
2022/09/11 09:17:44;;;;;;;;;;;;;;;22.55;47.79;99330.72;4474418;32;35341;-63
2022/09/11 09:20:12;;;;;;;;;;;;;;;22.36;48.00;99334.19;4475057;31;34426;-62
2022/09/11 09:22:47;;;;;;;;;;;;;;;22.22;48.48;99338.72;4466942;32;33660;-63
2022/09/11 09:25:16;;;;;;;;;;;;;;;22.78;47.30;99337.75;4462941;31;32621;-63
2022/09/11 09:27:45;;;;;;;;;;;;;;;23.04;46.33;99339.78;4470192;32;34149;-63
2022/09/11 09:30:17;;;;;;;;;;;;;;;23.25;46.00;99333.34;4459155;32;32415;-63
2022/09/11 09:32:50;;;;;;;;;;;;;;;23.24;46.14;99335.22;4462167;32;31563;-63
2022/09/11 09:35:22;;;;;;;;;;;;;;;22.67;46.98;99332.91;4471199;32;34865;-64
2022/09/11 09:37:50;;;;;;;;;;;;;;;23.06;45.99;99337.69;4460459;32;35131;-64
2022/09/11 09:40:17;;;;;;;;;;;;;;;22.46;46.83;99336.56;4472107;32;32987;-64
2022/09/11 09:42:46;;;;;;;;;;;;;;;22.58;46.26;99336.84;4473639;32;33514;-63
2022/09/11 09:45:23;;;;;;;;;;;;;;;22.13;47.49;99336.34;4467916;32;33310;-63
2022/09/11 09:47:50;;;;;;;;;;;;;;;22.20;47.56;99323.63;4463682;32;34082;-63
2022/09/11 09:50:19;;;;;;;;;;;;;;;22.56;45.79;99332.41;4475165;32;35445;-63
2022/09/11 09:52:47;;;;;;;;;;;;;;;22.70;46.59;99324.31;4464370;32;31728;-63
2022/09/11 09:55:16;;;;;;;;;;;;;;;22.78;45.80;99321.38;4464840;32;34889;-63
2022/09/11 09:57:44;;;;;;;;;;;;;;;22.06;48.59;99326.22;4461313;32;33626;-63
2022/09/11 10:00:16;;;;;;;;;;;;;;;22.55;46.44;99328.00;4471867;32;34530;-63
2022/09/11 10:02:47;;;;;;;;;;;;;;;22.78;46.53;99324.94;4472139;32;34286;-63
2022/09/11 10:05:17;;;;;;;;;;;;;;;23.20;45.80;99333.09;4484019;32;32963;-63
2022/09/11 10:07:48;;;;;;;;;;;;;;;23.24;45.47;99337.97;4470505;32;32972;-64
2022/09/11 10:10:20;;;;;;;;;;;;;;;23.30;45.99;99341.72;4464116;32;35672;-63
2022/09/11 10:12:47;;;;;;;;;;;;;;;23.30;44.79;99329.97;4463407;31;33266;-63
2022/09/11 10:15:21;;;;;;;;;;;;;;;23.37;44.60;99330.81;4468409;32;34036;-63
2022/09/11 10:17:52;;;;;;;;;;;;;;;22.67;46.27;99333.72;4478683;32;35208;-64
2022/09/11 10:20:25;;;;;;;;;;;;;;;23.06;45.42;99334.97;4485269;32;34899;-63
2022/09/11 10:22:53;;;;;;;;;;;;;;;22.96;45.32;99329.87;4472979;32;33788;-63
2022/09/11 10:25:21;;;;;;;;;;;;;;;23.17;44.74;99333.50;4461715;32;32615;-63
2022/09/11 10:27:55;;;;;;;;;;;;;;;22.74;45.91;99334.59;4463191;32;33995;-63
2022/09/11 10:30:26;;;;;;;;;;;;;;;22.71;46.08;99334.16;4466684;32;34529;-63
2022/09/11 10:32:54;;;;;;;;;;;;;;;22.21;47.09;99336.19;4462672;32;32446;-64
2022/09/11 10:35:25;;;;;;;;;;;;;;;22.57;46.77;99327.81;4470329;32;32627;-64
2022/09/11 10:38:00;;;;;;;;;;;;;;;22.99;46.08;99326.75;4459522;32;33612;-63
2022/09/11 10:40:27;;;;;;;;;;;;;;;22.63;47.20;99331.59;4457907;32;32994;-64
2022/09/11 10:42:55;;;;;;;;;;;;;;;22.38;48.07;99332.13;4470855;32;34598;-63
2022/09/11 10:45:22;;;;;;;;;;;;;;;22.54;47.75;99326.31;4478078;32;34105;-63
2022/09/11 10:47:49;;;;;;;;;;;;;;;22.65;47.78;99324.06;4463635;32;34034;-63
2022/09/11 10:50:17;;;;;;;;;;;;;;;22.94;47.40;99331.97;4464941;32;34562;-63
2022/09/11 10:52:47;;;;;;;;;;;;;;;22.82;47.81;99319.09;4462005;32;32093;-63
2022/09/11 10:55:16;;;;;;;;;;;;;;;22.96;46.96;99309.94;4470962;32;33596;-63
2022/09/11 10:57:49;;;;;;;;;;;;;;;23.10;47.07;99299.91;4462252;32;33991;-64
2022/09/11 11:00:16;;;;;;;;;;;;;;;23.69;45.58;99296.41;4464178;32;34788;-64
2022/09/11 11:02:44;;;;;;;;;;;;;;;23.19;46.18;99295.94;4467741;32;33702;-64
2022/09/11 11:05:25;;;;;;;;;;;;;;;23.38;45.49;99302.47;4464403;32;33509;-63
2022/09/11 11:08:06;;;;;;;;;;;;;;;23.38;45.52;99299.75;4470660;32;32564;-64
2022/09/11 11:10:45;;;;;;;;;;;;;;;23.43;45.25;99302.66;4456571;32;34031;-63
2022/09/11 11:13:14;;;;;;;;;;;;;;;23.56;45.31;99294.47;4471340;32;34684;-63
2022/09/11 11:15:56;;;;;;;;;;;;;;;23.75;44.95;99292.00;4471138;32;34080;-64
2022/09/11 11:18:37;;;;;;;;;;;;;;;23.78;44.74;99289.69;4469500;32;32605;-63
2022/09/11 11:21:11;;;;;;;;;;;;;;;23.88;44.03;99294.72;4459462;32;32761;-63
2022/09/11 11:24:05;;;;;;;;;;;;;;;23.86;44.07;99297.69;4466128;32;31830;-63
2022/09/11 11:26:42;;;;;;;;;;;;;;;24.28;43.89;99289.19;4448878;32;32769;-64
2022/09/11 11:29:21;;;;;;;;;;;;;;;23.52;45.37;99295.97;4475638;32;34279;-63
2022/09/11 11:31:50;;;;;;;;;;;;;;;23.81;42.58;99289.25;4480138;32;34378;-63
2022/09/11 11:34:27;;;;;;;;;;;;;;;24.28;41.48;99284.56;4472093;32;33184;-63
2022/09/11 11:37:12;;;;;;;;;;;;;;;24.53;41.09;99281.16;4475081;32;34104;-63
2022/09/11 11:39:46;;;;;;;;;;;;;;;24.62;41.74;99282.56;4456379;32;32864;-63
2022/09/11 11:42:16;;;;;;;;;;;;;;;24.71;40.65;99292.22;4477626;32;34396;-63
2022/09/11 11:44:51;;;;;;;;;;;;;;;24.05;42.09;99287.78;4454583;32;32001;-64
2022/09/11 11:47:19;;;;;;;;;;;;;;;23.54;43.40;99291.13;4470350;32;37080;-63
2022/09/11 11:49:50;;;;;;;;;;;;;;;23.82;42.85;99285.50;4469230;32;34416;-64
2022/09/11 11:52:30;;;;;;;;;;;;;;;23.56;43.58;99282.72;4471629;32;33953;-64
2022/09/11 11:55:01;;;;;;;;;;;;;;;23.78;43.56;99286.94;4465575;32;32078;-63
2022/09/11 11:57:31;;;;;;;;;;;;;;;24.04;42.83;99291.53;4473613;31;36476;-64
2022/09/11 12:00:02;;;;;;;;;;;;;;;23.96;42.05;99282.75;4472433;32;33293;-64
2022/09/11 12:02:42;;;;;;;;;;;;;;;23.85;41.94;99297.88;4471574;31;34505;-63
2022/09/11 12:05:10;;;;;;;;;;;;;;;23.75;42.43;99292.84;4465055;32;34351;-63
2022/09/11 12:07:38;;;;;;;;;;;;;;;23.70;42.31;99296.22;4467115;32;35523;-63
2022/09/11 12:10:06;;;;;;;;;;;;;;;23.89;41.77;99290.97;4476994;32;34070;-65
2022/09/11 12:12:34;;;;;;;;;;;;;;;23.38;42.95;99294.28;4458631;32;33026;-64
2022/09/11 12:15:05;;;;;;;;;;;;;;;23.00;47.12;99300.28;4468124;32;34074;-64
2022/09/11 12:17:33;;;;;;;;;;;;;;;23.06;47.94;99295.91;4469603;31;34771;-63
2022/09/11 12:20:10;;;;;;;;;;;;;;;22.62;50.28;99305.38;4455642;32;36201;-63
2022/09/11 12:22:48;;;;;;;;;;;;;;;22.07;53.86;99306.09;4476488;32;34524;-63
2022/09/11 12:25:18;;;;;;;;;;;;;;;22.18;56.51;99312.06;4467577;32;33637;-63
2022/09/11 12:27:53;;;;;;;;;;;;;;;21.51;56.24;99316.13;4475594;32;34883;-63
2022/09/11 12:30:22;;;;;;;;;;;;;;;21.02;58.98;99314.97;4475601;31;34633;-62
2022/09/11 12:32:50;;;;;;;;;;;;;;;21.25;57.34;99306.66;4473443;32;34371;-63
2022/09/11 12:35:37;;;;;;;;;;;;;;;21.80;55.43;99296.06;4479046;31;33713;-63
2022/09/11 12:38:12;;;;;;;;;;;;;;;21.85;55.42;99286.25;4471507;32;35310;-63
2022/09/11 12:40:56;;;;;;;;;;;;;;;22.08;57.81;99283.25;4468911;31;32596;-63
2022/09/11 12:43:44;;;;;;;;;;;;;;;22.33;56.84;99294.53;4471888;32;34208;-63
2022/09/11 12:46:20;;;;;;;;;;;;;;;22.17;54.78;99300.31;4476214;31;33679;-63
2022/09/11 12:48:51;;;;;;;;;;;;;;;22.04;57.85;99297.47;4472379;32;32629;-63
2022/09/11 12:51:41;;;;;;;;;;;;;;;22.09;56.52;99305.91;4469708;32;35041;-63
2022/09/11 12:54:20;;;;;;;;;;;;;;;22.35;54.97;99296.25;4457308;32;33140;-63
2022/09/11 12:57:06;;;;;;;;;;;;;;;22.39;55.68;99301.06;4464927;32;31959;-63
2022/09/11 12:59:38;;;;;;;;;;;;;;;22.75;54.44;99299.97;4472279;32;34093;-65
2022/09/11 13:02:24;;;;;;;;;;;;;;;22.74;53.49;99301.03;4465659;32;34008;-64
2022/09/11 13:04:52;;;;;;;;;;;;;;;22.86;53.33;99293.94;4468764;32;33032;-64
2022/09/11 13:07:29;;;;;;;;;;;;;;;22.59;52.90;99292.97;4477702;31;33677;-62